Home > Products > Valid Products > MTR

000
SAUS43 KDLH 030257
MTRGNA
METAR KGNA 030256Z AUTO 21014KT M02/M10 A3011 RMK AO1 SLP212
T10221100 58025





000
SAUS43 KDLH 030157
MTRGNA
METAR KGNA 030156Z AUTO 21014KT M03/M09 A3014 RMK AO1 SLP224
T10281094





000
SAUS43 KDLH 030057
MTRGNA
METAR KGNA 030056Z AUTO 21016KT M03/M09 A3016 RMK AO1 SLP229
T10281089





000
SAUS43 KDLH 030057
MTRGNA
METAR KGNA 030056Z AUTO 21016KT M03/M09 A3016 RMK AO1 SLP229
T10281089





000
SAUS43 KDLH 022357
MTRGNA
METAR KGNA 022356Z AUTO 20017KT M02/M09 A3018 RMK AO1 SLP238
T10221094 11022 21056 58030





000
SAUS43 KDLH 022357
MTRGNA
METAR KGNA 022356Z AUTO 20017KT M02/M09 A3018 RMK AO1 SLP238
T10221094 11022 21056 58030





000
SAUS43 KDLH 022257
MTRGNA
METAR KGNA 022256Z AUTO 22013KT M03/M09 A3022 RMK AO1 SLP251
T10331094





000
SAUS43 KDLH 022257
MTRGNA
METAR KGNA 022256Z AUTO 22013KT M03/M09 A3022 RMK AO1 SLP251
T10331094





000
SAUS43 KDLH 022157
MTRGNA
METAR KGNA 022156Z AUTO 23010KT M03/M09 A3024 RMK AO1 SLP259
T10331089





000
SAUS43 KDLH 022157
MTRGNA
METAR KGNA 022156Z AUTO 23010KT M03/M09 A3024 RMK AO1 SLP259
T10331089





000
SAUS43 KDLH 022057
MTRGNA
METAR KGNA 022056Z AUTO 22013KT M04/M09 A3027 RMK AO1 SLP270
T10391094 56038





000
SAUS43 KDLH 022057
MTRGNA
METAR KGNA 022056Z AUTO 22013KT M04/M09 A3027 RMK AO1 SLP270
T10391094 56038





000
SAUS43 KDLH 021957
MTRGNA
METAR KGNA 021956Z AUTO 23011KT M04/M10 A3031 RMK AO1 SLP280
T10441100





000
SAUS43 KDLH 021957
MTRGNA
METAR KGNA 021956Z AUTO 23011KT M04/M10 A3031 RMK AO1 SLP280
T10441100





000
SAUS43 KDLH 021857
MTRGNA
METAR KGNA 021856Z AUTO 23012KT M05/M11 A3035 RMK AO1 SLP295
T10501106





000
SAUS43 KDLH 021857
MTRGNA
METAR KGNA 021856Z AUTO 23012KT M05/M11 A3035 RMK AO1 SLP295
T10501106





000
SAUS43 KDLH 021757
MTRGNA
METAR KGNA 021756Z AUTO 24012G18KT M05/M11 A3039 RMK AO1 SLP307
T10501106 11050 21111 50003





000
SAUS43 KDLH 021757
MTRGNA
METAR KGNA 021756Z AUTO 24012G18KT M05/M11 A3039 RMK AO1 SLP307
T10501106 11050 21111 50003





000
SAUS43 KDLH 021657
MTRGNA
METAR KGNA 021656Z AUTO 22010KT M07/M13 A3039 RMK AO1 SLP310
T10721128





000
SAUS43 KDLH 021557
MTRGNA
METAR KGNA 021556Z AUTO 22010KT M08/M13 A3038 RMK AO1 SLP306
T10831133





000
SAUS43 KDLH 021457
MTRGNA
METAR KGNA 021456Z AUTO 24007KT M08/M14 A3038 RMK AO1 SLP305
T10831144 51036





000
SAUS43 KDLH 021357
MTRGNA
METAR KGNA 021356Z AUTO 27005KT M10/M15 A3036 RMK AO1 SLP302
T11001150





000
SAUS43 KDLH 021357
MTRGNA
METAR KGNA 021356Z AUTO 27005KT M10/M15 A3036 RMK AO1 SLP302
T11001150





000
SAUS43 KDLH 021257
MTRGNA
METAR KGNA 021256Z AUTO 25005G17KT M10/M14 A3034 RMK AO1 PK WND
32032/1206 SLP294 T11001139





000
SAUS43 KDLH 021157
MTRGNA
METAR KGNA 021156Z AUTO 33018G29KT M11/M16 A3027 RMK AO1 PK WND
31029/1155 SLP269 T11111161 11089 21133 58010





000
SAUS43 KDLH 021057
MTRGNA
METAR KGNA 021056Z AUTO VRB05KT M13/M17 A3034 RMK AO1 SLP292
T11281167





000
SAUS43 KDLH 020957
MTRGNA
METAR KGNA 020956Z AUTO 28004KT M12/M17 A3031 RMK AO1 SLP284
T11221167





000
SAUS43 KDLH 020957
MTRGNA
METAR KGNA 020956Z AUTO 28004KT M12/M17 A3031 RMK AO1 SLP284
T11221167





000
SAUS43 KDLH 020857
MTRGNA
METAR KGNA 020856Z AUTO 26005KT M11/M16 A3030 RMK AO1 SLP278
T11111161 53026





000
SAUS43 KDLH 020857
MTRGNA
METAR KGNA 020856Z AUTO 26005KT M11/M16 A3030 RMK AO1 SLP278
T11111161 53026





000
SAUS43 KDLH 020757
MTRGNA
METAR KGNA 020756Z AUTO VRB06KT M09/M16 A3028 RMK AO1 SLP269
T10941161





000
SAUS43 KDLH 020657
MTRGNA
METAR KGNA 020656Z AUTO VRB04KT M09/M17 A3024 RMK AO1 SLP257
T10941167





000
SAUS43 KDLH 020657
MTRGNA
METAR KGNA 020656Z AUTO VRB04KT M09/M17 A3024 RMK AO1 SLP257
T10941167





000
SAUS43 KDLH 020557
MTRGNA
METAR KGNA 020556Z AUTO VRB06KT M09/M16 A3022 RMK AO1 SLP252
T10891156 11050 21089 410111100 51031





000
SAUS43 KDLH 020557
MTRGNA
METAR KGNA 020556Z AUTO VRB06KT M09/M16 A3022 RMK AO1 SLP252
T10891156 11050 21089 410111100 51031





000
SAUS43 KDLH 020457
MTRGNA
METAR KGNA 020456Z AUTO 26006KT M08/M16 A3019 RMK AO1 SLP242
T10831161





000
SAUS43 KDLH 020357
MTRGNA
METAR KGNA 020356Z AUTO 28007KT 250V330 M08/M16 A3017 RMK AO1 SLP235
T10781161





000
SAUS43 KDLH 020257
MTRGNA
METAR KGNA 020256Z AUTO 27007KT 250V310 M08/M16 A3013 RMK AO1 SLP221
T10781156 51021





000
SAUS43 KDLH 020157
MTRGNA
METAR KGNA 020156Z AUTO VRB05KT M08/M14 A3012 RMK AO1 SLP217
T10781144





000
SAUS43 KDLH 020157
MTRGNA
METAR KGNA 020156Z AUTO VRB05KT M08/M14 A3012 RMK AO1 SLP217
T10781144





000
SAUS43 KDLH 020057
MTRGNA
METAR KGNA 020056Z AUTO 26007KT M07/M15 A3009 RMK AO1 SLP209
T10671150





000
SAUS43 KDLH 020057
MTRGNA
METAR KGNA 020056Z AUTO 26007KT M07/M15 A3009 RMK AO1 SLP209
T10671150





000
SAUS43 KDLH 012357
MTRGNA
METAR KGNA 012356Z AUTO VRB05KT M05/M16 A3007 RMK AO1 SLP200
T10501161 11011 21050 53018





000
SAUS43 KDLH 012357
MTRGNA
METAR KGNA 012356Z AUTO VRB05KT M05/M16 A3007 RMK AO1 SLP200
T10501161 11011 21050 53018





000
SAUS43 KDLH 012257
MTRGNA
METAR KGNA 012256Z AUTO 27008KT M03/M14 A3004 RMK AO1 SLP190
T10331144





000
SAUS43 KDLH 012257
MTRGNA
METAR KGNA 012256Z AUTO 27008KT M03/M14 A3004 RMK AO1 SLP190
T10331144





000
SAUS43 KDLH 012157
MTRGNA
METAR KGNA 012156Z AUTO 26012G21KT M02/M13 A3002 RMK AO1 SLP181
T10221133





000
SAUS43 KDLH 012157
MTRGNA
METAR KGNA 012156Z AUTO 26012G21KT M02/M13 A3002 RMK AO1 SLP181
T10221133





000
SAUS43 KDLH 012057
MTRGNA
METAR KGNA 012056Z AUTO 25011G19KT M01/M15 A3001 RMK AO1 SLP178
T10111150 56017





000
SAUS43 KDLH 012057
MTRGNA
METAR KGNA 012056Z AUTO 25011G19KT M01/M15 A3001 RMK AO1 SLP178
T10111150 56017





000
SAUS43 KDLH 011957
MTRGNA
METAR KGNA 011956Z AUTO 26010G20KT M02/M13 A3003 RMK AO1 SLP182
T10171128





000
SAUS43 KDLH 011857
MTRGNA
METAR KGNA 011856Z AUTO 25010G17KT M02/M13 A3004 RMK AO1 SLP189
T10221133





000
SAUS43 KDLH 011857
MTRGNA
METAR KGNA 011856Z AUTO 25010G17KT M02/M13 A3004 RMK AO1 SLP189
T10221133





000
SAUS43 KDLH 011757
MTRGNA
METAR KGNA 011756Z AUTO 24011KT M03/M11 A3006 RMK AO1 SLP197
T10331111 11033 21094 56014





000
SAUS43 KDLH 011757
MTRGNA
METAR KGNA 011756Z AUTO 24011KT M03/M11 A3006 RMK AO1 SLP197
T10331111 11033 21094 56014





000
SAUS43 KDLH 011657
MTRGNA
METAR KGNA 011656Z AUTO 23013KT M06/M10 A3008 RMK AO1 SLP203
T10561100





000
SAUS43 KDLH 011557
MTRGNA
METAR KGNA 011556Z AUTO 24012KT M06/M10 A3009 RMK AO1 SLP207
T10611100





000
SAUS43 KDLH 011457
MTRGNA
METAR KGNA 011456Z AUTO VRB06KT M07/M12 A3011 RMK AO1 SLP212
T10721122 56012





000
SAUS43 KDLH 011457
MTRGNA
METAR KGNA 011456Z AUTO VRB06KT M07/M12 A3011 RMK AO1 SLP212
T10721122 56012





000
SAUS43 KDLH 011357
MTRGNA
METAR KGNA 011356Z AUTO 25007KT M08/M12 A3012 RMK AO1 SLP217
T10831122





000
SAUS43 KDLH 011357
MTRGNA
METAR KGNA 011356Z AUTO 25007KT M08/M12 A3012 RMK AO1 SLP217
T10831122





000
SAUS43 KDLH 011257
MTRGNA
METAR KGNA 011256Z AUTO VRB03KT M09/M14 A3012 RMK AO1 SLP219
T10941139





000
SAUS43 KDLH 011257
MTRGNA
METAR KGNA 011256Z AUTO VRB03KT M09/M14 A3012 RMK AO1 SLP219
T10941139





000
SAUS43 KDLH 011157
MTRGNA
METAR KGNA 011156Z AUTO 27005KT M09/M14 A3014 RMK AO1 SLP225 60001
70002 T10941139 11061 21100 56010





000
SAUS43 KDLH 011057
MTRGNA
METAR KGNA 011056Z AUTO 27006KT M09/M14 A3015 RMK AO1 SLP229 P0001
T10941144





000
SAUS43 KDLH 010957
MTRGNA
METAR KGNA 010956Z AUTO 26008G15KT M09/M14 A3016 RMK AO1 SLP230
T10891139





000
SAUS43 KDLH 010957
MTRGNA
METAR KGNA 010956Z AUTO 26008G15KT M09/M14 A3016 RMK AO1 SLP230
T10891139





000
SAUS43 KDLH 010857
MTRGNA
METAR KGNA 010856Z AUTO 27012G18KT M08/M13 A3017 RMK AO1 SLP234
T10781128 58013





000
SAUS43 KDLH 010857
MTRGNA
METAR KGNA 010856Z AUTO 27012G18KT M08/M13 A3017 RMK AO1 SLP234
T10781128 58013





000
SAUS43 KDLH 010757
MTRGNA
METAR KGNA 010756Z AUTO 26009G17KT M08/M13 A3019 RMK AO1 SLP241
T10781133





000
SAUS43 KDLH 010657
MTRGNA
METAR KGNA 010656Z AUTO 26009G27KT M07/M11 A3020 RMK AO1 PK WND
22029/0639 SLP246 T10721111





000
SAUS43 KDLH 010657
MTRGNA
METAR KGNA 010656Z AUTO 26009G27KT M07/M11 A3020 RMK AO1 PK WND
22029/0639 SLP246 T10721111





000
SAUS43 KDLH 010557
MTRGNA
METAR KGNA 010556Z AUTO 26009G29KT M07/M10 A3021 RMK AO1 PK WND
23034/0515 SLP248 P0001 60001 T10671100 11050 21067 410501194 58017





000
SAUS43 KDLH 010557
MTRGNA
METAR KGNA 010556Z AUTO 26009G29KT M07/M10 A3021 RMK AO1 PK WND
23034/0515 SLP248 P0001 60001 T10671100 11050 21067 410501194 58017





000
SAUS43 KDLH 010457
MTRGNA
METAR KGNA 010456Z AUTO 23022G32KT M07/M09 A3023 RMK AO1 PK WND
22032/0449 SLP256 T10671089





000
SAUS43 KDLH 010457
MTRGNA
METAR KGNA 010456Z AUTO 23022G32KT M07/M09 A3023 RMK AO1 PK WND
22032/0449 SLP256 T10671089





000
SAUS43 KDLH 010357
MTRGNA
METAR KGNA 010356Z AUTO 23023G31KT M07/M12 A3025 RMK AO1 PK WND
22032/0323 SLP262 T10671117





000
SAUS43 KDLH 010257
MTRGNA
METAR KGNA 010256Z AUTO 21027G32KT M06/M13 A3026 RMK AO1 PK WND
22032/0252 SLP266 T10561133 56009





000
SAUS43 KDLH 010257
MTRGNA
METAR KGNA 010256Z AUTO 21027G32KT M06/M13 A3026 RMK AO1 PK WND
22032/0252 SLP266 T10561133 56009





000
SAUS43 KDLH 010157
MTRGNA
METAR KGNA 010156Z AUTO 21021KT M05/M13 A3027 RMK AO1 PK WND
21026/0150 SLP269 T10501133





000
SAUS43 KDLH 010057
MTRGNA
METAR KGNA 010056Z AUTO 22020G25KT M05/M14 A3028 RMK AO1 PK WND
21027/2359 SLP275 T10501139





000
SAUS43 KDLH 010057
MTRGNA
METAR KGNA 010056Z AUTO 22020G25KT M05/M14 A3028 RMK AO1 PK WND
21027/2359 SLP275 T10501139





000
SAUS43 KDLH 282357
MTRGNA
METAR KGNA 282356Z AUTO 22021KT M05/M12 A3029 RMK AO1 PK WND
21027/2345 SLP280 T10501122 11050 21089 57020





000
SAUS43 KDLH 282357
MTRGNA
METAR KGNA 282356Z AUTO 22021KT M05/M12 A3029 RMK AO1 PK WND
21027/2345 SLP280 T10501122 11050 21089 57020





000
SAUS43 KDLH 282257
MTRGNA
METAR KGNA 282256Z AUTO 23019KT M05/M13 A3030 RMK AO1 PK WND
23029/2241 SLP285 T10501128





000
SAUS43 KDLH 282257
MTRGNA
METAR KGNA 282256Z AUTO 23019KT M05/M13 A3030 RMK AO1 PK WND
23029/2241 SLP285 T10501128





000
SAUS43 KDLH 282157
MTRGNA
METAR KGNA 282156Z AUTO 22018KT M06/M11 A3033 RMK AO1 PK WND
24028/2120 SLP293 T10561111





000
SAUS43 KDLH 282057
MTRGNA
METAR KGNA 282056Z AUTO 22020KT M06/M11 A3035 RMK AO1 PK WND
21027/2021 SLP298 T10611111 56027





000
SAUS43 KDLH 282057
MTRGNA
METAR KGNA 282056Z AUTO 22020KT M06/M11 A3035 RMK AO1 PK WND
21027/2021 SLP298 T10611111 56027





000
SAUS43 KDLH 281957
MTRGNA
METAR KGNA 281956Z AUTO 22021G26KT M07/M11 A3037 RMK AO1 PK WND
22026/1955 SLP306 T10671111





000
SAUS43 KDLH 281857
MTRGNA
METAR KGNA 281856Z AUTO 23022KT M08/M11 A3040 RMK AO1 PK WND
22028/1841 SLP314 T10781111





000
SAUS43 KDLH 281857
MTRGNA
METAR KGNA 281856Z AUTO 23022KT M08/M11 A3040 RMK AO1 PK WND
22028/1841 SLP314 T10781111





000
SAUS43 KDLH 281757
MTRGNA
METAR KGNA 281756Z AUTO 22021KT M09/M12 A3043 RMK AO1 SLP326
T10891117 11089 21194 58006





000
SAUS43 KDLH 281757
MTRGNA
METAR KGNA 281756Z AUTO 22021KT M09/M12 A3043 RMK AO1 SLP326
T10891117 11089 21194 58006





000
SAUS43 KDLH 281658
MTRGNA
METAR KGNA 281656Z AUTO 21021KT M09/M12 A3044 RMK AO1 PK WND
22026/1645 SLP330 T10941122





000
SAUS43 KDLH 281658
MTRGNA
METAR KGNA 281656Z AUTO 21021KT M09/M12 A3044 RMK AO1 PK WND
22026/1645 SLP330 T10941122





000
SAUS43 KDLH 281558
MTRGNA
METAR KGNA 281556Z AUTO 23015KT M09/M13 A3045 RMK AO1 SLP331
T10891128





000
SAUS43 KDLH 281457
MTRGNA
METAR KGNA 281456Z AUTO 26005KT M09/M16 A3045 RMK AO1 SLP333
T10941156 53001





000
SAUS43 KDLH 281357
MTRGNA
METAR KGNA 281356Z AUTO 28004KT M12/M19 A3045 RMK AO1 SLP333
T11171189





000
SAUS43 KDLH 281357
MTRGNA
METAR KGNA 281356Z AUTO 28004KT M12/M19 A3045 RMK AO1 SLP333
T11171189





000
SAUS43 KDLH 281257
MTRGNA
METAR KGNA 281256Z AUTO 30004KT M17/M22 A3045 RMK AO1 SLP334
T11671217





000
SAUS43 KDLH 281257
MTRGNA
METAR KGNA 281256Z AUTO 30004KT M17/M22 A3045 RMK AO1 SLP334
T11671217





000
SAUS43 KDLH 281157
MTRGNA
METAR KGNA 281156Z AUTO 00000KT M19/M23 A3045 RMK AO1 SLP334
T11941233 11117 21194 51007





000
SAUS43 KDLH 281157
MTRGNA
METAR KGNA 281156Z AUTO 00000KT M19/M23 A3045 RMK AO1 SLP334
T11941233 11117 21194 51007





000
SAUS43 KDLH 281057
MTRGNA
METAR KGNA 281056Z AUTO 31004KT M18/M23 A3044 RMK AO1 SLP332
T11831233





000
SAUS43 KDLH 281057
MTRGNA
METAR KGNA 281056Z AUTO 31004KT M18/M23 A3044 RMK AO1 SLP332
T11831233





000
SAUS43 KDLH 280957
MTRGNA
METAR KGNA 280956Z AUTO 31004KT M16/M22 A3044 RMK AO1 SLP329
T11611222





000
SAUS43 KDLH 280957
MTRGNA
METAR KGNA 280956Z AUTO 31004KT M16/M22 A3044 RMK AO1 SLP329
T11611222





000
SAUS43 KDLH 280857
MTRGNA
METAR KGNA 280856Z AUTO 25007KT M14/M21 A3043 RMK AO1 SLP325
T11391211 51007





000
SAUS43 KDLH 280757
MTRGNA
METAR KGNA 280756Z AUTO 30003KT M14/M23 A3042 RMK AO1 SLP325
T11441228





000
SAUS43 KDLH 280657
MTRGNA
METAR KGNA 280656Z AUTO 24008KT M12/M21 A3042 RMK AO1 SLP322
T11221211





000
SAUS43 KDLH 280657
MTRGNA
METAR KGNA 280656Z AUTO 24008KT M12/M21 A3042 RMK AO1 SLP322
T11221211





000
SAUS43 KDLH 280557
MTRGNA
METAR KGNA 280556Z AUTO 26007KT M12/M22 A3040 RMK AO1 SLP317
T11171217 11061 21133 410611222 51005





000
SAUS43 KDLH 280557
MTRGNA
METAR KGNA 280556Z AUTO 26007KT M12/M22 A3040 RMK AO1 SLP317
T11171217 11061 21133 410611222 51005





000
SAUS43 KDLH 280457
MTRGNA
METAR KGNA 280456Z AUTO 27004KT M13/M22 A3040 RMK AO1 SLP316
T11281222





000
SAUS43 KDLH 280457
MTRGNA
METAR KGNA 280456Z AUTO 27004KT M13/M22 A3040 RMK AO1 SLP316
T11281222





000
SAUS43 KDLH 280357
MTRGNA
METAR KGNA 280356Z AUTO 27006KT M11/M22 A3040 RMK AO1 SLP316
T11061222





000
SAUS43 KDLH 280357
MTRGNA
METAR KGNA 280356Z AUTO 27006KT M11/M22 A3040 RMK AO1 SLP316
T11061222





    US Dept of Commerce
    National Oceanic and Atmospheric Administration
    National Weather Service
    1325 East West Highway
    Silver Spring, MD 20910
    Page Author: NWS Internet Services Team
Disclaimer
Information Quality
Credits
Glossary
Privacy Policy
Freedom of Information Act (FOIA)
About Us
Career Opportunities